Etihad Airways Virtual Airport Information Service

Dubai International Airport

ICAO: OMDB Country: United Arab Emirates
Latitude: 25.2528 Longitude: 55.3644
Latest Arrival : UAE238 (KBOS-OMDB) Latest Departure : UAE237 (OMDB-KBOS)


WX CaptureLIVE
Data provided by noaa.gov | Recorded at 02:00:04

METAR : OMDB 020100Z 13005KT CAVOK 22/15 Q1014 NOSIG

TAF : OMDB 012300Z 0200/0306 10005KT CAVOK BECMG 0206/0208 20010KT BECMG 0209/0211 32010KT BECMG 0217/0219 12005KT


Runway Data for OMDB
Data provided by openaviationdata.com

Runway ID Mag Var Hdg Length Elevation Surface ILS Freq ILS Id ILS Slope

Dubai International Airport, United Arab Emirates
Use only for reference purposes